Terminal Aerodrome Forecast
Issued by NWS

Home | Current Version | Previous Version | Text Only | Print | Product List | Glossary On
Versions: 1 2 3 4 5 6 7 8 9 10 11 12 13 14 15 16 17 18 19 20 21 22 23 24
000
FTUS43 KDVN 242200 AAA
TAFBRL
TAF AMD
KBRL 242225Z 2422/2518 28015G20KT P6SM OVC027
      TEMPO 2422/2424 3SM -SN BR BKN014
     FM250000 28012KT P6SM -SHSN OVC025
     FM250600 30012KT P6SM BKN035=

USA.gov is the U.S. government's official web portal to all federal, state and local government web resources and services.